createdAt,value
2016-01-24T00:00:33.410Z,49.48
2016-01-24T00:01:33.522Z,50.15
2016-01-24T00:02:33.728Z,51.48
2016-01-24T00:03:33.594Z,51.1
2016-01-24T00:04:33.648Z,50.15
2016-01-24T00:05:33.699Z,49.98
2016-01-24T00:06:33.733Z,49.79
2016-01-24T00:07:33.801Z,49.88
2016-01-24T00:08:33.851Z,49.21
2016-01-24T00:09:33.995Z,49.14
2016-01-24T00:10:33.950Z,48.47
2016-01-24T00:11:34.017Z,48.66
2016-01-24T00:12:34.069Z,48.47
2016-01-24T00:13:34.118Z,48.66
2016-01-24T00:14:34.183Z,48.75
2016-01-24T00:15:34.280Z,48.95
2016-01-24T00:16:34.284Z,47.99
2016-01-24T00:17:34.334Z,48.18
2016-01-24T00:18:34.603Z,48.38
2016-01-24T00:19:34.668Z,47.99
2016-01-24T00:20:34.499Z,48.47
2016-01-24T00:21:34.552Z,48.59
2016-01-24T00:22:34.603Z,47.92
2016-01-24T00:23:34.653Z,47.92
2016-01-24T00:24:34.719Z,47.82
2016-01-24T00:25:34.768Z,47.82
2016-01-24T00:26:34.818Z,47.63
2016-01-24T00:27:35.243Z,47.73
2016-01-24T00:28:34.935Z,47.71
2016-01-24T00:29:34.985Z,47.82
2016-01-24T00:30:35.053Z,47.63
2016-01-24T00:31:35.086Z,47.82
2016-01-24T00:32:35.153Z,47.63
2016-01-24T00:33:35.203Z,47.82
2016-01-24T00:34:35.268Z,47.63
2016-01-24T00:35:35.318Z,47.44
2016-01-24T00:36:35.354Z,47.73
2016-01-24T00:37:35.434Z,47.73
2016-01-24T00:38:35.485Z,47.73
2016-01-24T00:39:35.540Z,47.92
2016-01-24T00:40:35.589Z,47.92
2016-01-24T00:41:35.640Z,47.82
2016-01-24T00:42:35.723Z,47.92
2016-01-24T00:43:35.757Z,47.92
2016-01-24T00:44:35.870Z,47.82
2016-01-24T00:45:35.950Z,47.92
2016-01-24T00:46:35.923Z,47.92
2016-01-24T00:47:35.976Z,47.73
2016-01-24T00:48:36.025Z,47.73
2016-01-24T00:49:36.074Z,47.92
2016-01-24T00:50:36.140Z,48.11
2016-01-24T00:51:36.193Z,48.11
2016-01-24T00:52:36.243Z,48.21
2016-01-24T00:53:36.308Z,47.82
2016-01-24T00:54:36.373Z,47.82
2016-01-24T00:55:36.408Z,48.3
2016-01-24T00:56:36.457Z,48.21
2016-01-24T00:57:36.524Z,48.3
2016-01-24T00:58:36.574Z,47.73
2016-01-24T00:59:36.625Z,48.4
2016-01-24T01:00:36.690Z,48.49
2016-01-24T01:01:36.742Z,48.21
2016-01-24T01:02:36.792Z,48.4
2016-01-24T01:03:36.856Z,48.3
2016-01-24T01:04:36.906Z,48.49
2016-01-24T01:05:36.957Z,48.3
2016-01-24T01:06:37.009Z,48.49
2016-01-24T01:07:37.090Z,48.4
2016-01-24T01:08:37.123Z,48.49
2016-01-24T01:09:37.189Z,48.11
2016-01-24T01:10:37.228Z,48.49
2016-01-24T01:11:37.322Z,48.3
2016-01-24T01:12:37.357Z,48.11
2016-01-24T01:13:37.407Z,48.21
2016-01-24T01:14:37.457Z,48.3
2016-01-24T01:15:37.515Z,48.23
2016-01-24T01:16:37.552Z,48.21
2016-01-24T01:17:37.589Z,48.33
2016-01-24T01:18:37.719Z,48.4
2016-01-24T01:19:37.662Z,48.49
2016-01-24T01:20:37.723Z,48.02
2016-01-24T01:21:37.769Z,48.4
2016-01-24T01:22:37.814Z,48.3
2016-01-24T01:23:37.876Z,48.21
2016-01-24T01:24:37.922Z,48.8
2016-01-24T01:25:37.970Z,48.23
2016-01-24T01:26:38.018Z,48.88
2016-01-24T01:27:38.081Z,48.33
2016-01-24T01:28:38.144Z,49.1
2016-01-24T01:29:38.197Z,48.21
2016-01-24T01:30:38.231Z,48.33
2016-01-24T01:31:38.294Z,48.33
2016-01-24T01:32:38.375Z,48.8
2016-01-24T01:33:38.398Z,48.8
2016-01-24T01:34:38.477Z,48.71
2016-01-24T01:35:38.541Z,48.61
2016-01-24T01:36:38.608Z,48.61
2016-01-24T01:37:38.625Z,48.71
2016-01-24T01:38:38.677Z,48.61
2016-01-24T01:39:38.726Z,48.59
2016-01-24T01:40:38.792Z,48.52
2016-01-24T01:41:38.841Z,48.71
2016-01-24T01:42:38.891Z,48.8
2016-01-24T01:43:38.957Z,48.59
2016-01-24T01:44:39.008Z,48.71
2016-01-24T01:45:39.417Z,48.69
2016-01-24T01:46:39.311Z,48.71
2016-01-24T01:47:39.251Z,48.71
2016-01-24T01:48:39.223Z,48.52
2016-01-24T01:49:39.289Z,48.59
2016-01-24T01:50:39.342Z,48.59
2016-01-24T01:51:39.391Z,48.61
2016-01-24T01:52:39.444Z,48.4
2016-01-24T01:53:39.509Z,48.61
2016-01-24T01:54:39.559Z,48.4
2016-01-24T01:55:39.625Z,48.3
2016-01-24T01:56:39.674Z,48.8
2016-01-24T01:57:39.727Z,48.8
2016-01-24T01:58:39.776Z,48.8
2016-01-24T01:59:39.843Z,48.61
2016-01-24T02:00:39.891Z,49.19
2016-01-24T02:01:39.943Z,48.8
2016-01-24T02:02:40.008Z,48.69
2016-01-24T02:03:40.058Z,48.97
2016-01-24T02:04:40.108Z,48.71
2016-01-24T02:05:40.173Z,48.8
2016-01-24T02:06:40.212Z,49.1
2016-01-24T02:07:40.277Z,48.88
2016-01-24T02:08:40.328Z,49
2016-01-24T02:09:40.379Z,48.9
2016-01-24T02:10:40.464Z,48.9
2016-01-24T02:11:40.607Z,49
2016-01-24T02:12:40.563Z,49
2016-01-24T02:13:40.599Z,48.97
2016-01-24T02:14:40.665Z,49.19
2016-01-24T02:15:40.716Z,49.1
2016-01-24T02:16:40.765Z,49.29
2016-01-24T02:17:40.830Z,49.19
2016-01-24T02:18:40.880Z,49.38
2016-01-24T02:19:40.944Z,49.38
2016-01-24T02:20:40.984Z,49.29
2016-01-24T02:21:41.050Z,49.29
2016-01-24T02:22:41.099Z,49.29
2016-01-24T02:23:41.166Z,49.29
2016-01-24T02:24:41.203Z,49.26
2016-01-24T02:25:41.267Z,49.29
2016-01-24T02:26:41.316Z,49.38
2016-01-24T02:27:41.382Z,49.29
2016-01-24T02:28:41.467Z,49.38
2016-01-24T02:29:41.500Z,49.29
2016-01-24T02:30:41.549Z,49.29
2016-01-24T02:31:41.614Z,49.57
2016-01-24T02:32:41.665Z,49.38
2016-01-24T02:33:41.716Z,49.38
2016-01-24T02:34:41.765Z,49.38
2016-01-24T02:35:41.830Z,49.48
2016-01-24T02:36:41.881Z,49.57
2016-01-24T02:37:41.930Z,49.29
2016-01-24T02:38:41.996Z,49.38
2016-01-24T02:39:42.046Z,49.29
2016-01-24T02:40:42.112Z,49.38
2016-01-24T02:41:42.176Z,49.29
2016-01-24T02:42:42.242Z,49.67
2016-01-24T02:43:42.277Z,49.38
2016-01-24T02:44:42.327Z,49.38
2016-01-24T02:45:42.377Z,49.38
2016-01-24T02:46:42.427Z,50.05
2016-01-24T02:47:42.495Z,49.96
2016-01-24T02:48:42.545Z,49.96
2016-01-24T02:49:42.610Z,49.76
2016-01-24T02:50:42.661Z,49.67
2016-01-24T02:51:42.696Z,50.24
2016-01-24T02:52:42.755Z,49.57
2016-01-24T02:53:42.823Z,49.96
2016-01-24T02:54:42.872Z,50.05
2016-01-24T02:55:43.361Z,50.05
2016-01-24T02:56:42.972Z,50.15
2016-01-24T02:57:43.038Z,50.15
2016-01-24T02:58:43.133Z,49.96
2016-01-24T02:59:43.154Z,50.05
2016-01-24T03:00:43.203Z,49.86
2016-01-24T03:01:43.269Z,50.05
2016-01-24T03:02:43.304Z,50.34
2016-01-24T03:03:43.447Z,50.34
2016-01-24T03:04:43.434Z,49.96
2016-01-24T03:05:43.485Z,49.76
2016-01-24T03:06:43.537Z,50.63
2016-01-24T03:07:43.586Z,49.96
2016-01-24T03:08:43.636Z,50.05
2016-01-24T03:09:43.688Z,49.96
2016-01-24T03:10:43.755Z,50.15
2016-01-24T03:11:43.804Z,50.15
2016-01-24T03:12:43.869Z,50.43
2016-01-24T03:13:43.921Z,49.76
2016-01-24T03:14:43.986Z,50.43
2016-01-24T03:15:44.021Z,50.34
2016-01-24T03:16:44.086Z,49.74
2016-01-24T03:17:44.136Z,50.12
2016-01-24T03:18:44.185Z,50.24
2016-01-24T03:19:44.252Z,50.24
2016-01-24T03:20:44.302Z,50.15
2016-01-24T03:21:44.352Z,50.05
2016-01-24T03:22:44.401Z,50.53
2016-01-24T03:23:44.467Z,50.43
2016-01-24T03:24:44.523Z,50.43
2016-01-24T03:25:44.604Z,50.15
2016-01-24T03:26:44.637Z,50.43
2016-01-24T03:27:44.687Z,50.34
2016-01-24T03:28:44.737Z,49.84
2016-01-24T03:29:44.802Z,50.15
2016-01-24T03:30:44.852Z,50.05
2016-01-24T03:31:44.902Z,50.05
2016-01-24T03:32:44.954Z,49.96
2016-01-24T03:33:45.019Z,49.96
2016-01-24T03:34:45.070Z,50.34
2016-01-24T03:35:45.135Z,50.43
2016-01-24T03:36:45.185Z,50.63
2016-01-24T03:37:45.236Z,50.63
2016-01-24T03:38:45.286Z,50.53
2016-01-24T03:39:45.663Z,49.84
2016-01-24T03:40:45.416Z,49.67
2016-01-24T03:41:45.515Z,50.15
2016-01-24T03:42:45.520Z,50.15
2016-01-24T03:43:45.558Z,50.43
2016-01-24T03:44:45.624Z,50.34
2016-01-24T03:45:45.674Z,50.53
2016-01-24T03:46:45.724Z,50.15
2016-01-24T03:47:45.789Z,50.24
2016-01-24T03:48:45.856Z,50.53
2016-01-24T03:49:45.905Z,50.53
2016-01-24T03:50:45.956Z,50.73
2016-01-24T03:51:46.005Z,50.34
2016-01-24T03:52:46.071Z,50.24
2016-01-24T03:53:46.118Z,50.34
2016-01-24T03:54:46.214Z,50.05
2016-01-24T03:55:46.237Z,50.24
2016-01-24T03:56:46.287Z,50.43
2016-01-24T03:57:46.339Z,50.15
2016-01-24T03:58:46.388Z,50.63
2016-01-24T03:59:46.454Z,50.34
2016-01-24T04:00:46.505Z,50.34
2016-01-24T04:01:46.557Z,50.53
2016-01-24T04:02:46.607Z,50.63
2016-01-24T04:03:46.673Z,50.43
2016-01-24T04:04:46.723Z,50.73
2016-01-24T04:05:46.787Z,50.24
2016-01-24T04:06:46.837Z,50.63
2016-01-24T04:07:46.888Z,50.34
2016-01-24T04:08:46.954Z,50.53
2016-01-24T04:09:47.034Z,50.15
2016-01-24T04:10:47.054Z,50.34
2016-01-24T04:11:47.120Z,50.34
2016-01-24T04:12:47.170Z,50.34
2016-01-24T04:13:47.220Z,50.43
2016-01-24T04:14:47.270Z,50.82
2016-01-24T04:15:47.383Z,50.73
2016-01-24T04:16:47.386Z,50.53
2016-01-24T04:17:47.467Z,50.24
2016-01-24T04:18:47.501Z,50.24
2016-01-24T04:19:47.552Z,50.15
2016-01-24T04:20:47.617Z,51.01
2016-01-24T04:21:47.659Z,50.15
2016-01-24T04:22:47.726Z,50.43
2016-01-24T04:23:47.776Z,50.34
2016-01-24T04:24:47.825Z,50.43
2016-01-24T04:25:47.876Z,50.15
2016-01-24T04:26:47.941Z,50.24
2016-01-24T04:27:47.992Z,50.15
2016-01-24T04:28:48.058Z,49.96
2016-01-24T04:29:48.109Z,50.53
2016-01-24T04:30:48.158Z,50.63
2016-01-24T04:31:48.208Z,50.24
2016-01-24T04:32:48.273Z,50.63
2016-01-24T04:33:48.323Z,50.73
2016-01-24T04:34:48.389Z,50.24
2016-01-24T04:35:48.439Z,50.53
2016-01-24T04:36:48.488Z,50.24
2016-01-24T04:37:48.573Z,50.73
2016-01-24T04:38:48.607Z,50.63
2016-01-24T04:39:48.660Z,50.24
2016-01-24T04:40:48.709Z,50.34
2016-01-24T04:41:48.775Z,50.34
2016-01-24T04:42:48.825Z,50.15
2016-01-24T04:43:48.878Z,50.43
2016-01-24T04:44:48.945Z,50.24
2016-01-24T04:45:48.995Z,50.43
2016-01-24T04:46:49.045Z,50.73
2016-01-24T04:47:49.094Z,50.73
2016-01-24T04:48:49.145Z,51.01
2016-01-24T04:49:49.216Z,50.92
2016-01-24T04:50:49.266Z,50.63
2016-01-24T04:51:49.317Z,51.1
2016-01-24T04:52:49.367Z,50.82
2016-01-24T04:53:49.276Z,51.1
2016-01-24T04:54:49.483Z,50.73
2016-01-24T04:55:49.462Z,50.82
2016-01-24T04:56:49.642Z,51.1
2016-01-24T04:57:49.645Z,50.99
2016-01-24T04:58:50.590Z,50.73
2016-01-24T04:59:49.953Z,51.01
2016-01-24T05:00:49.814Z,50.73
2016-01-24T05:01:49.879Z,50.63
2016-01-24T05:02:49.929Z,50.73
2016-01-24T05:03:49.979Z,50.53
2016-01-24T05:04:50.045Z,50.63
2016-01-24T05:05:50.095Z,50.43
2016-01-24T05:06:50.143Z,50.43
2016-01-24T05:07:50.194Z,50.53
2016-01-24T05:08:50.276Z,50.63
2016-01-24T05:09:50.311Z,50.63
2016-01-24T05:10:50.376Z,51.01
2016-01-24T05:11:50.427Z,51.1
2016-01-24T05:12:50.478Z,51.1
2016-01-24T05:13:50.527Z,51.2
2016-01-24T05:14:50.591Z,51.4
2016-01-24T05:15:50.628Z,51.3
2016-01-24T05:16:50.696Z,51.1
2016-01-24T05:17:50.761Z,51.1
2016-01-24T05:18:50.810Z,51.1
2016-01-24T05:19:50.858Z,51.4
2016-01-24T05:20:50.926Z,51.2
2016-01-24T05:21:50.975Z,51.49
2016-01-24T05:22:51.071Z,50.82
2016-01-24T05:23:51.090Z,50.82
2016-01-24T05:24:51.140Z,50.92
2016-01-24T05:25:51.236Z,51.01
2016-01-24T05:26:51.257Z,50.82
2016-01-24T05:27:51.306Z,50.73
2016-01-24T05:28:51.356Z,50.53
2016-01-24T05:29:51.421Z,50.82
2016-01-24T05:30:51.313Z,50.34
2016-01-24T05:31:51.535Z,50.05
2016-01-24T05:32:51.599Z,50.82
2016-01-24T05:33:51.650Z,50.63
2016-01-24T05:34:51.684Z,50.82
2016-01-24T05:35:51.750Z,50.24
2016-01-24T05:36:51.815Z,50.15
2016-01-24T05:37:51.865Z,50.73
2016-01-24T05:38:51.915Z,51.1
2016-01-24T05:39:51.966Z,51.3
2016-01-24T05:40:52.033Z,50.43
2016-01-24T05:41:52.083Z,51.3
2016-01-24T05:42:52.133Z,51.4
2016-01-24T05:43:52.182Z,51.4
2016-01-24T05:44:52.252Z,51.3
2016-01-24T05:45:52.301Z,51.2
2016-01-24T05:46:52.351Z,51.2
2016-01-24T05:47:52.404Z,51.2
2016-01-24T05:48:52.517Z,51.1
2016-01-24T05:49:52.520Z,51.2
2016-01-24T05:50:52.586Z,51.2
2016-01-24T05:51:52.619Z,51.2
2016-01-24T05:52:52.701Z,50.99
2016-01-24T05:53:52.766Z,51.1
2016-01-24T05:54:52.786Z,51.2
2016-01-24T05:55:52.852Z,51.2
2016-01-24T05:56:52.900Z,51.1
2016-01-24T05:57:52.966Z,51.59
2016-01-24T05:58:53.017Z,51.01
2016-01-24T05:59:53.067Z,51.08
2016-01-24T06:00:53.117Z,51.49
2016-01-24T06:01:53.182Z,51.1
2016-01-24T06:02:53.326Z,51.1
2016-01-24T06:03:53.360Z,51.2
2016-01-24T06:04:53.347Z,51.49
2016-01-24T06:05:53.396Z,51.1
2016-01-24T06:06:53.450Z,51.01
2016-01-24T06:07:53.515Z,51.2
2016-01-24T06:08:53.567Z,51.2
2016-01-24T06:09:53.617Z,51.4
2016-01-24T06:10:53.682Z,51.4
2016-01-24T06:11:53.746Z,51.4
2016-01-24T06:12:53.781Z,51.2
2016-01-24T06:13:53.847Z,51.3
2016-01-24T06:14:53.897Z,51.3
2016-01-24T06:15:53.961Z,50.79
2016-01-24T06:16:54.028Z,51.2
2016-01-24T06:17:54.064Z,51.01
2016-01-24T06:18:54.144Z,51.1
2016-01-24T06:19:54.164Z,51.56
2016-01-24T06:20:54.855Z,51.49
2016-01-24T06:21:54.280Z,51.2
2016-01-24T06:22:54.330Z,51.37
2016-01-24T06:23:54.396Z,51.4
2016-01-24T06:24:54.445Z,51.4
2016-01-24T06:25:54.526Z,51.2
2016-01-24T06:26:54.561Z,51.4
2016-01-24T06:27:54.613Z,51.1
2016-01-24T06:28:54.679Z,51.01
2016-01-24T06:29:54.729Z,51.1
2016-01-24T06:30:54.779Z,51.2
2016-01-24T06:31:54.828Z,51.49
2016-01-24T06:32:54.895Z,51.4
2016-01-24T06:33:55.039Z,51.3
2016-01-24T06:34:54.994Z,51.46
2016-01-24T06:35:55.059Z,51.46
2016-01-24T06:36:55.113Z,51.37
2016-01-24T06:37:55.338Z,51.37
2016-01-24T06:38:55.231Z,51.28
2016-01-24T06:39:55.281Z,51.18
2016-01-24T06:40:55.331Z,51.08
2016-01-24T06:41:55.414Z,51.1
2016-01-24T06:42:55.447Z,51.3
2016-01-24T06:43:55.497Z,51.08
2016-01-24T06:44:55.550Z,51.49
2016-01-24T06:45:55.600Z,51.1
2016-01-24T06:46:55.745Z,51.2
2016-01-24T06:47:55.781Z,51.49
2016-01-24T06:48:55.768Z,51.4
2016-01-24T06:49:55.834Z,51.1
2016-01-24T06:50:55.901Z,51.49
2016-01-24T06:51:55.940Z,51.01
2016-01-24T06:52:55.989Z,51.2
2016-01-24T06:53:56.054Z,51.18
2016-01-24T06:54:56.105Z,51.18
2016-01-24T06:55:56.156Z,51.01
2016-01-24T06:56:56.237Z,51.1
2016-01-24T06:57:56.271Z,51.49
2016-01-24T06:58:56.320Z,51.4
2016-01-24T06:59:56.370Z,51.68
2016-01-24T07:00:56.437Z,51.56
2016-01-24T07:01:56.501Z,51.49
2016-01-24T07:02:56.551Z,51.59
2016-01-24T07:03:56.606Z,51.59
2016-01-24T07:04:56.659Z,51.68
2016-01-24T07:05:56.710Z,52.26
2016-01-24T07:06:56.774Z,52.26
2016-01-24T07:07:56.823Z,52.26
2016-01-24T07:08:56.875Z,52.36
2016-01-24T07:09:56.927Z,52.33
2016-01-24T07:10:56.992Z,51.85
2016-01-24T07:11:57.041Z,51.85
2016-01-24T07:12:57.106Z,51.85
2016-01-24T07:13:57.156Z,51.85
2016-01-24T07:14:57.207Z,52.23
2016-01-24T07:15:57.272Z,52.04
2016-01-24T07:16:57.306Z,52.04
2016-01-24T07:17:57.371Z,51.95
2016-01-24T07:18:57.430Z,51.46
2016-01-24T07:19:57.480Z,52.04
2016-01-24T07:20:57.544Z,51.85
2016-01-24T07:21:57.595Z,52.23
2016-01-24T07:22:57.661Z,52.14
2016-01-24T07:23:57.711Z,52.14
2016-01-24T07:24:57.761Z,52.04
2016-01-24T07:25:57.810Z,52.04
2016-01-24T07:26:57.860Z,52.04
2016-01-24T07:27:57.925Z,52.04
2016-01-24T07:28:57.977Z,51.85
2016-01-24T07:29:58.027Z,52.04
2016-01-24T07:30:58.093Z,52.04
2016-01-24T07:31:58.142Z,51.95
2016-01-24T07:32:58.194Z,52.04
2016-01-24T07:33:58.246Z,52.14
2016-01-24T07:34:58.311Z,51.95
2016-01-24T07:35:58.360Z,52.04
2016-01-24T07:36:58.426Z,51.95
2016-01-24T07:37:58.492Z,52.04
2016-01-24T07:38:58.527Z,51.85
2016-01-24T07:39:58.578Z,52.14
2016-01-24T07:40:58.642Z,52.04
2016-01-24T07:41:58.692Z,51.95
2016-01-24T07:42:58.759Z,52.04
2016-01-24T07:43:58.809Z,52.04
2016-01-24T07:44:58.860Z,51.85
2016-01-24T07:45:58.908Z,52.04
2016-01-24T07:46:58.959Z,52.04
2016-01-24T07:47:59.019Z,52.14
2016-01-24T07:48:59.162Z,52.14
2016-01-24T07:49:59.212Z,52.04
2016-01-24T07:50:59.183Z,52.14
2016-01-24T07:51:59.249Z,52.04
2016-01-24T07:52:59.284Z,52.04
2016-01-24T07:53:59.351Z,52.14
2016-01-24T07:54:59.400Z,52.33
2016-01-24T07:55:59.466Z,52.04
2016-01-24T07:56:59.516Z,52.04
2016-01-24T07:57:59.569Z,52.71
2016-01-24T07:58:59.619Z,52.14
2016-01-24T07:59:59.684Z,51.95
2016-01-24T08:00:59.736Z,52.14
2016-01-24T08:01:59.785Z,52.04
2016-01-24T08:02:59.837Z,52.14
2016-01-24T08:03:59.902Z,52.33
2016-01-24T08:04:59.983Z,51.75
2016-01-24T08:06:00.001Z,51.65
2016-01-24T08:07:00.068Z,52.14
2016-01-24T08:08:00.122Z,51.95
2016-01-24T08:09:00.171Z,52.42
2016-01-24T08:10:00.220Z,52.52
2016-01-24T08:11:00.287Z,52.14
2016-01-24T08:12:00.337Z,52.62
2016-01-24T08:13:00.403Z,52.52
2016-01-24T08:14:00.453Z,52.62
2016-01-24T08:15:00.502Z,52.62
2016-01-24T08:16:00.551Z,52.52
2016-01-24T08:17:00.618Z,52.23
2016-01-24T08:18:00.667Z,51.85
2016-01-24T08:19:00.764Z,52.14
2016-01-24T08:20:00.767Z,52.62
2016-01-24T08:21:00.833Z,52.14
2016-01-24T08:22:00.884Z,52.33
2016-01-24T08:23:00.933Z,52.42
2016-01-24T08:24:01.000Z,51.95
2016-01-24T08:25:01.113Z,52.52
2016-01-24T08:26:01.100Z,52.42
2016-01-24T08:27:01.165Z,52.52
2016-01-24T08:28:01.215Z,52.04
2016-01-24T08:29:01.280Z,52.62
2016-01-24T08:30:01.329Z,52.71
2016-01-24T08:31:01.396Z,52.04
2016-01-24T08:32:01.445Z,52.14
2016-01-24T08:33:01.511Z,52.42
2016-01-24T08:34:01.545Z,52.04
2016-01-24T08:35:01.643Z,51.85
2016-01-24T08:36:01.678Z,52.23
2016-01-24T08:37:01.743Z,52.14
2016-01-24T08:38:01.777Z,51.95
2016-01-24T08:39:01.828Z,52.04
2016-01-24T08:40:01.879Z,51.85
2016-01-24T08:41:01.945Z,52.33
2016-01-24T08:42:01.981Z,51.56
2016-01-24T08:43:02.046Z,52.14
2016-01-24T08:44:02.097Z,52.26
2016-01-24T08:45:02.007Z,52.23
2016-01-24T08:46:02.197Z,52.33
2016-01-24T08:47:02.263Z,51.95
2016-01-24T08:48:02.314Z,52.04
2016-01-24T08:49:02.380Z,51.85
2016-01-24T08:50:02.523Z,52.14
2016-01-24T08:51:02.667Z,52.42
2016-01-24T08:52:02.544Z,51.95
2016-01-24T08:53:02.594Z,52.52
2016-01-24T08:54:02.645Z,52.42
2016-01-24T08:55:02.711Z,52.71
2016-01-24T08:56:02.760Z,51.95
2016-01-24T08:57:02.873Z,52.52
2016-01-24T08:58:02.891Z,53.09
2016-01-24T08:59:02.911Z,52.52
2016-01-24T09:00:02.976Z,52.42
2016-01-24T09:01:03.059Z,52.71
2016-01-24T09:02:03.093Z,53
2016-01-24T09:03:03.142Z,52.52
2016-01-24T09:04:03.270Z,52.81
2016-01-24T09:05:03.239Z,52.81
2016-01-24T09:06:03.308Z,52.81
2016-01-24T09:07:03.701Z,52.91
2016-01-24T09:08:03.419Z,52.71
2016-01-24T09:09:03.470Z,52.71
2016-01-24T09:10:03.520Z,52.71
2016-01-24T09:11:03.634Z,52.71
2016-01-24T09:12:03.637Z,52.81
2016-01-24T09:13:03.687Z,52.33
2016-01-24T09:14:03.752Z,52.71
2016-01-24T09:15:03.818Z,52.81
2016-01-24T09:16:03.851Z,52.81
2016-01-24T09:17:03.903Z,52.71
2016-01-24T09:18:03.970Z,52.71
2016-01-24T09:19:04.021Z,53
2016-01-24T09:20:04.073Z,52.91
2016-01-24T09:21:04.124Z,52.71
2016-01-24T09:22:04.220Z,52.81
2016-01-24T09:23:04.240Z,52.81
2016-01-24T09:24:04.368Z,52.71
2016-01-24T09:25:04.388Z,52.71
2016-01-24T09:26:04.407Z,52.71
2016-01-24T09:27:04.456Z,53
2016-01-24T09:28:04.522Z,52.71
2016-01-24T09:29:04.573Z,52.91
2016-01-24T09:30:04.622Z,52.42
2016-01-24T09:31:04.672Z,53
2016-01-24T09:32:04.736Z,52.91
2016-01-24T09:33:04.789Z,52.81
2016-01-24T09:34:04.854Z,52.71
2016-01-24T09:35:04.918Z,52.71
2016-01-24T09:36:04.953Z,52.52
2016-01-24T09:37:05.080Z,52.04
2016-01-24T09:38:05.072Z,52.52
2016-01-24T09:39:05.122Z,52.42
2016-01-24T09:40:05.172Z,52.36
2016-01-24T09:41:05.221Z,51.95
2016-01-24T09:42:05.287Z,51.97
2016-01-24T09:43:05.199Z,51.95
2016-01-24T09:44:05.404Z,52.07
2016-01-24T09:45:05.453Z,52.26
2016-01-24T09:46:05.503Z,52.16
2016-01-24T09:47:05.555Z,52.14
2016-01-24T09:48:05.612Z,52.16
2016-01-24T09:49:05.679Z,51.97
2016-01-24T09:50:05.729Z,52.36
2016-01-24T09:51:05.778Z,52.36
2016-01-24T09:52:05.860Z,51.68
2016-01-24T09:53:05.909Z,52.26
2016-01-24T09:54:05.944Z,52.36
2016-01-24T09:55:06.040Z,50.43
2016-01-24T09:56:06.063Z,46.03
2016-01-24T09:57:06.114Z,45.14
2016-01-24T09:58:06.164Z,45.02
2016-01-24T09:59:06.215Z,45.02
2016-01-24T10:00:06.263Z,46.72
2016-01-24T10:01:06.329Z,48.52
2016-01-24T10:02:06.381Z,48.71
2016-01-24T10:03:06.430Z,47.37
2016-01-24T10:04:06.558Z,46.2
2016-01-24T10:05:06.546Z,45.81
2016-01-24T10:06:07.111Z,47.42
2016-01-24T10:07:06.662Z,46.75
2016-01-24T10:08:06.728Z,47.58
2016-01-24T10:09:06.825Z,48.44
2016-01-24T10:10:06.828Z,49.78
2016-01-24T10:11:06.876Z,50.45
2016-01-24T10:12:06.926Z,50.55
2016-01-24T10:13:06.992Z,49.98
2016-01-24T10:14:07.042Z,50.84
2016-01-24T10:15:07.094Z,50.84
2016-01-24T10:16:07.146Z,49.69
2016-01-24T10:17:07.195Z,49.78
2016-01-24T10:18:07.260Z,49.9
2016-01-24T10:19:07.325Z,49.71
2016-01-24T10:20:07.363Z,49.59
2016-01-24T10:21:07.414Z,49.78
2016-01-24T10:22:07.457Z,50.16
2016-01-24T10:23:08.027Z,50.29
2016-01-24T10:24:07.550Z,50
2016-01-24T10:25:07.589Z,50
2016-01-24T10:26:07.628Z,50.29
2016-01-24T10:27:07.674Z,50
2016-01-24T10:28:07.735Z,49.02
2016-01-24T10:29:07.782Z,48.93
2016-01-24T10:30:07.828Z,49.21
2016-01-24T10:31:07.874Z,49.98
2016-01-24T10:32:07.939Z,49.98
2016-01-24T10:33:07.987Z,49.3
2016-01-24T10:34:08.035Z,48.52
2016-01-24T10:35:08.148Z,48.9
2016-01-24T10:36:08.151Z,50.62
2016-01-24T10:37:08.184Z,49.66
2016-01-24T10:38:08.264Z,49.18
2016-01-24T10:39:08.298Z,50.04
2016-01-24T10:40:08.350Z,50.62
2016-01-24T10:41:08.399Z,51
2016-01-24T10:42:08.482Z,52.15
2016-01-24T10:43:08.515Z,51.76
2016-01-24T10:44:08.564Z,52.53
2016-01-24T10:45:08.613Z,52.15
2016-01-24T10:46:08.663Z,52.46
2016-01-24T10:47:08.729Z,51.89
2016-01-24T10:48:08.781Z,52.1
2016-01-24T10:49:08.832Z,52.1
2016-01-24T10:50:08.883Z,51.81
2016-01-24T10:51:08.934Z,52.2
2016-01-24T10:52:08.984Z,52.39
2016-01-24T10:53:09.034Z,51.91
2016-01-24T10:54:09.099Z,52.03
2016-01-24T10:55:09.151Z,51.93
2016-01-24T10:56:09.201Z,52.32
2016-01-24T10:57:09.344Z,52.7
2016-01-24T10:58:09.315Z,52.89
2016-01-24T10:59:09.368Z,52.73
2016-01-24T11:00:09.419Z,52.73
2016-01-24T11:01:09.514Z,52.83
2016-01-24T11:02:09.533Z,52.63
2016-01-24T11:03:09.583Z,52.63
2016-01-24T11:04:09.633Z,53.69
2016-01-24T11:05:09.699Z,52.73
2016-01-24T11:06:09.735Z,53.49
2016-01-24T11:07:09.784Z,53.49
2016-01-24T11:08:09.865Z,53.49
2016-01-24T11:09:09.900Z,53.49
2016-01-24T11:10:09.950Z,53.4
2016-01-24T11:11:10.000Z,53.4
2016-01-24T11:12:10.050Z,53.78
2016-01-24T11:13:10.131Z,53.49
2016-01-24T11:14:10.165Z,53.49
2016-01-24T11:15:10.215Z,53.69
2016-01-24T11:16:10.282Z,53.04
2016-01-24T11:17:10.331Z,53.62
2016-01-24T11:18:10.381Z,53.62
2016-01-24T11:19:10.439Z,53.14
2016-01-24T11:20:10.488Z,53.71
2016-01-24T11:21:10.538Z,53.42
2016-01-24T11:22:10.618Z,53.71
2016-01-24T11:23:10.656Z,53.52
2016-01-24T11:24:10.706Z,53.71
2016-01-24T11:25:10.757Z,53.71
2016-01-24T11:26:10.806Z,53.14
2016-01-24T11:27:10.871Z,53.33
2016-01-24T11:28:10.921Z,53.71
2016-01-24T11:29:10.971Z,53.62
2016-01-24T11:30:11.052Z,53.81
2016-01-24T11:31:11.167Z,54.19
2016-01-24T11:32:11.138Z,53.81
2016-01-24T11:33:11.187Z,53.91
2016-01-24T11:34:11.238Z,54.19
2016-01-24T11:35:11.288Z,53.81
2016-01-24T11:36:11.354Z,53.71
2016-01-24T11:37:11.435Z,53.71
2016-01-24T11:38:11.472Z,53.62
2016-01-24T11:39:11.522Z,53.42
2016-01-24T11:40:11.556Z,53.14
2016-01-24T11:41:11.621Z,53.42
2016-01-24T11:42:11.686Z,52.75
2016-01-24T11:43:11.736Z,53.23
2016-01-24T11:44:11.788Z,53.14
2016-01-24T11:45:11.837Z,53.23
2016-01-24T11:46:11.902Z,53.33
2016-01-24T11:47:11.952Z,53.14
2016-01-24T11:48:12.222Z,53.14
2016-01-24T11:49:12.061Z,52.95
2016-01-24T11:50:12.142Z,53.33
2016-01-24T11:51:12.176Z,53.14
2016-01-24T11:52:12.226Z,53.23
2016-01-24T11:53:12.275Z,53.23
2016-01-24T11:54:12.325Z,53.14
2016-01-24T11:55:12.531Z,53.14
2016-01-24T11:56:12.425Z,53.33
2016-01-24T11:57:12.490Z,53.71
2016-01-24T11:58:12.775Z,53.33
2016-01-24T11:59:12.604Z,53.71
2016-01-24T12:00:12.653Z,53.64
2016-01-24T12:01:12.703Z,53.91
2016-01-24T12:02:12.864Z,53.93
2016-01-24T12:03:12.820Z,53.55
2016-01-24T12:04:13.965Z,53.64
2016-01-24T12:05:14.029Z,53.93
2016-01-24T12:06:13.923Z,53.74
2016-01-24T12:07:13.034Z,53.52
2016-01-24T12:08:13.085Z,53.64
2016-01-24T12:09:13.135Z,52.2
2016-01-24T12:10:13.200Z,51.82
2016-01-24T12:11:13.843Z,52.3
2016-01-24T12:12:14.317Z,53.26
2016-01-24T12:13:13.787Z,53.45
2016-01-24T12:14:14.557Z,52.95
2016-01-24T12:15:15.997Z,53.26
2016-01-24T12:16:15.204Z,53.16
2016-01-24T12:17:15.606Z,53.64
2016-01-24T12:18:15.046Z,53.45
2016-01-24T12:19:14.299Z,52.97
2016-01-24T12:20:14.646Z,53.26
2016-01-24T12:21:14.398Z,53.16
2016-01-24T12:22:15.199Z,53.26
2016-01-24T12:23:15.048Z,53.36
2016-01-24T12:24:14.928Z,53.26
2016-01-24T12:25:15.681Z,53.36
2016-01-24T12:26:15.137Z,53.45
2016-01-24T12:27:14.812Z,53.55
2016-01-24T12:28:15.020Z,53.45
2016-01-24T12:29:14.554Z,52.87
2016-01-24T12:30:16.353Z,52.78
2016-01-24T12:31:15.154Z,53.55
2016-01-24T12:32:14.390Z,52.97
2016-01-24T12:33:14.441Z,53.55
2016-01-24T12:34:14.507Z,53.36
2016-01-24T12:35:14.540Z,53.26
2016-01-24T12:36:14.605Z,53.45
2016-01-24T12:37:14.657Z,53.55
2016-01-24T12:38:14.708Z,53.36
2016-01-24T12:39:14.773Z,53.55
2016-01-24T12:40:14.822Z,52.78
2016-01-24T12:41:14.874Z,52.78
2016-01-24T12:42:14.924Z,52.59
2016-01-24T12:43:14.974Z,52.87
2016-01-24T12:44:15.024Z,52.69
2016-01-24T12:45:15.088Z,52.78
2016-01-24T12:46:15.137Z,52.62
2016-01-24T12:47:15.266Z,52.5
2016-01-24T12:48:15.253Z,52.3
2016-01-24T12:49:15.303Z,52.5
2016-01-24T12:50:15.400Z,52.62
2016-01-24T12:51:16.139Z,52.5
2016-01-24T12:52:15.471Z,52.01
2016-01-24T12:53:15.537Z,52.52
2016-01-24T12:54:15.586Z,52.91
2016-01-24T12:55:15.636Z,52.78
2016-01-24T12:56:15.701Z,52.78
2016-01-24T12:57:15.845Z,52.69
2016-01-24T12:58:15.832Z,52.62